Terminal Aerodrome Forecast
Issued by NWS

Home | Current Version | Previous Version | Text Only | Print | Product List | Glossary On
Versions: 1 2 3 4 5 6 7 8 9 10 11 12
836
FTUS45 KRIW 210523
TAFRKS
TAF
KRKS 210523Z 2106/2206 28018G26KT P6SM SCT035
     FM211600 27022G32KT P6SM SCT050 BKN150
     FM220200 25015G25KT P6SM SCT050 BKN200=

USA.gov is the U.S. government's official web portal to all federal, state and local government web resources and services.